Time;durP1;ratioP1;P1;durP2;ratioP2;P2;SDS_P1;SDS_P2;PMS_P1;PMS_P2;Temp;Humidity;BMP_temperature;BMP_pressure;BME280_temperature;BME280_humidity;BME280_pressure;Samples;Min_cycle;Max_cycle;Signal;HPM_P1;HPM_P2
2021/12/03 00:00:45;;;;;;;7.85;3.70;;;;;;;-2.77;100.00;97875.56;4210693;27;20368;-71
2021/12/03 00:02:46;;;;;;;8.13;4.40;;;;;;;-2.87;100.00;97867.69;4207924;27;20051;-71
2021/12/03 00:04:46;;;;;;;8.02;4.38;;;;;;;-2.96;100.00;97877.63;4211483;27;20464;-71
2021/12/03 00:06:46;;;;;;;7.28;3.75;;;;;;;-2.99;100.00;97879.03;4211112;27;20031;-71
2021/12/03 00:08:47;;;;;;;6.88;3.78;;;;;;;-3.01;100.00;97892.06;4210072;27;20050;-71
2021/12/03 00:10:55;;;;;;;9.60;4.07;;;;;;;-3.06;100.00;97883.25;4208889;27;20055;-71
2021/12/03 00:12:57;;;;;;;8.25;4.00;;;;;;;-3.12;100.00;97877.16;4209079;27;20380;-71
2021/12/03 00:14:58;;;;;;;8.07;4.07;;;;;;;-3.13;100.00;97891.81;4209729;27;20073;-71
2021/12/03 00:16:58;;;;;;;9.35;3.83;;;;;;;-3.14;100.00;97890.22;4210110;27;20052;-71
2021/12/03 00:18:58;;;;;;;7.85;4.18;;;;;;;-3.18;100.00;97897.31;4207141;27;20295;-71
2021/12/03 00:21:03;;;;;;;8.85;4.00;;;;;;;-3.21;100.00;97897.94;4209723;27;20078;-71
2021/12/03 00:23:04;;;;;;;9.90;3.88;;;;;;;-3.23;100.00;97898.19;4209525;27;20047;-71
2021/12/03 00:25:05;;;;;;;5.30;3.40;;;;;;;-3.29;100.00;97895.94;4206405;27;20031;-71
2021/12/03 00:27:06;;;;;;;6.65;3.92;;;;;;;-3.31;100.00;97892.69;4210878;27;20328;-71
2021/12/03 00:29:07;;;;;;;6.90;3.63;;;;;;;-3.31;100.00;97887.28;4210831;27;20487;-71
2021/12/03 00:31:08;;;;;;;11.18;4.13;;;;;;;-3.32;100.00;97881.09;4207452;27;20074;-72
2021/12/03 00:33:09;;;;;;;5.72;3.58;;;;;;;-3.33;100.00;97876.78;4209403;27;20101;-71
2021/12/03 00:35:10;;;;;;;7.97;3.65;;;;;;;-3.29;100.00;97882.41;4211537;27;20040;-71
2021/12/03 00:37:10;;;;;;;6.03;3.45;;;;;;;-3.34;100.00;97879.78;4208857;27;20424;-71
2021/12/03 00:39:11;;;;;;;7.57;3.53;;;;;;;-3.33;100.00;97874.06;4206781;27;20044;-71
2021/12/03 00:41:15;;;;;;;6.78;3.58;;;;;;;-3.28;100.00;97878.59;4210447;27;20036;-71
2021/12/03 00:43:15;;;;;;;5.43;3.47;;;;;;;-3.25;100.00;97883.38;4207612;27;20466;-71
2021/12/03 00:45:16;;;;;;;5.75;3.05;;;;;;;-3.22;100.00;97885.50;4208574;27;20040;-71
2021/12/03 00:47:16;;;;;;;7.53;3.28;;;;;;;-3.22;100.00;97889.00;4207562;27;20467;-71
2021/12/03 00:49:17;;;;;;;7.07;3.15;;;;;;;-3.28;100.00;97887.50;4209304;27;20047;-71
2021/12/03 00:51:20;;;;;;;6.18;3.17;;;;;;;-3.36;100.00;97884.72;4209859;27;20589;-71
2021/12/03 00:53:21;;;;;;;5.85;3.13;;;;;;;-3.40;100.00;97876.38;4209017;27;20134;-71
2021/12/03 00:55:23;;;;;;;10.88;3.10;;;;;;;-3.41;100.00;97881.00;4208567;27;20094;-71
2021/12/03 00:57:23;;;;;;;5.18;3.08;;;;;;;-3.40;100.00;97873.66;4210172;27;20826;-71
2021/12/03 00:59:23;;;;;;;5.50;3.10;;;;;;;-3.43;100.00;97883.19;4207675;27;20058;-71
2021/12/03 01:01:24;;;;;;;5.50;3.10;;;;;;;-3.48;100.00;97885.19;4207455;27;20409;-71
2021/12/03 01:03:24;;;;;;;7.22;3.63;;;;;;;-3.47;100.00;97893.03;4209832;27;20043;-71
2021/12/03 01:05:26;;;;;;;8.02;3.20;;;;;;;-3.59;100.00;97891.91;4205673;27;20035;-71
2021/12/03 01:07:26;;;;;;;10.68;3.25;;;;;;;-3.69;100.00;97895.63;4209607;27;20040;-71
2021/12/03 01:09:27;;;;;;;8.73;3.55;;;;;;;-3.75;100.00;97894.09;4208325;27;20036;-71
2021/12/03 01:11:27;;;;;;;6.70;3.28;;;;;;;-3.76;100.00;97900.63;4205729;27;20608;-71
2021/12/03 01:13:27;;;;;;;5.45;2.53;;;;;;;-3.76;100.00;97896.00;4207380;27;20585;-71
2021/12/03 01:15:32;;;;;;;4.68;3.30;;;;;;;-3.74;100.00;97896.50;4205479;27;20048;-71
2021/12/03 01:17:33;;;;;;;5.72;3.05;;;;;;;-3.81;100.00;97900.69;4207449;27;20463;-71
2021/12/03 01:19:34;;;;;;;4.63;2.72;;;;;;;-3.89;100.00;97891.38;4206001;27;20134;-71
2021/12/03 01:21:34;;;;;;;4.50;2.75;;;;;;;-3.94;100.00;97899.59;4205185;27;20040;-71
2021/12/03 01:23:35;;;;;;;5.10;2.85;;;;;;;-4.00;100.00;97890.75;4207767;27;20594;-71
2021/12/03 01:25:35;;;;;;;7.53;3.40;;;;;;;-4.04;100.00;97897.06;4208737;27;20329;-71
2021/12/03 01:27:36;;;;;;;5.47;3.15;;;;;;;-4.03;100.00;97895.97;4208212;27;20399;-71
2021/12/03 01:29:37;;;;;;;4.43;2.85;;;;;;;-3.99;100.00;97895.06;4206683;27;20063;-72
2021/12/03 01:31:37;;;;;;;5.82;3.20;;;;;;;-4.00;100.00;97893.47;4205240;28;20040;-72
2021/12/03 01:33:38;;;;;;;4.72;2.58;;;;;;;-4.00;100.00;97898.06;4210374;27;20053;-71
2021/12/03 01:35:38;;;;;;;6.18;3.17;;;;;;;-4.06;100.00;97894.66;4210726;27;20043;-71
2021/12/03 01:37:39;;;;;;;5.45;2.70;;;;;;;-4.06;100.00;97885.75;4207509;27;20126;-71
2021/12/03 01:39:40;;;;;;;8.77;3.25;;;;;;;-4.07;100.00;97887.66;4211028;28;20404;-71
2021/12/03 01:41:40;;;;;;;3.50;2.35;;;;;;;-4.07;100.00;97895.75;4206139;28;20039;-71
2021/12/03 01:43:42;;;;;;;6.55;2.78;;;;;;;-4.07;100.00;97893.03;4205879;27;20396;-71
2021/12/03 01:45:43;;;;;;;4.43;2.60;;;;;;;-4.07;100.00;97878.75;4214103;27;20040;-71
2021/12/03 01:47:45;;;;;;;4.70;2.40;;;;;;;-4.00;100.00;97888.06;4204169;28;20043;-71
2021/12/03 01:49:46;;;;;;;3.63;2.40;;;;;;;-3.98;100.00;97885.84;4206501;27;20048;-71
2021/12/03 01:51:46;;;;;;;3.97;2.63;;;;;;;-4.00;99.39;97889.97;4206587;27;20044;-71
2021/12/03 01:53:47;;;;;;;5.50;2.22;;;;;;;-4.01;99.73;97889.16;4204483;28;20389;-71
2021/12/03 01:55:49;;;;;;;5.47;2.03;;;;;;;-4.04;99.11;97886.28;4207734;27;20109;-71
2021/12/03 01:57:50;;;;;;;3.58;2.13;;;;;;;-4.13;97.76;97904.25;4206792;28;20051;-71
2021/12/03 01:59:51;;;;;;;4.22;2.10;;;;;;;-4.16;96.70;97905.63;4207517;28;20491;-71
2021/12/03 02:01:51;;;;;;;2.65;1.70;;;;;;;-4.19;95.98;97903.53;4207050;27;20359;-71
2021/12/03 02:03:54;;;;;;;2.95;1.70;;;;;;;-4.19;95.19;97908.13;4206676;28;20044;-71
2021/12/03 02:05:57;;;;;;;4.60;1.90;;;;;;;-4.24;94.48;97914.41;4206031;28;20044;-71
2021/12/03 02:07:58;;;;;;;4.13;2.00;;;;;;;-4.28;94.16;97918.81;4207179;27;20445;-71
2021/12/03 02:09:58;;;;;;;3.25;2.00;;;;;;;-4.32;94.93;97920.50;4206585;28;20296;-71
2021/12/03 02:11:59;;;;;;;5.25;1.73;;;;;;;-4.37;95.32;97921.38;4206306;28;20369;-71
2021/12/03 02:13:59;;;;;;;4.53;1.90;;;;;;;-4.37;94.94;97924.09;4205785;28;20051;-71
2021/12/03 02:16:00;;;;;;;3.42;1.80;;;;;;;-4.37;93.66;97917.88;4205761;27;20117;-71
2021/12/03 02:18:01;;;;;;;2.92;1.85;;;;;;;-4.37;92.92;97918.69;4205116;28;20181;-71
2021/12/03 02:20:03;;;;;;;3.97;1.63;;;;;;;-4.39;92.42;97918.16;4204384;28;20114;-70
2021/12/03 02:22:04;;;;;;;2.35;1.42;;;;;;;-4.49;93.63;97918.31;4209395;27;20039;-70
2021/12/03 02:24:04;;;;;;;2.95;1.67;;;;;;;-4.52;93.61;97918.91;4207825;28;20032;-70
2021/12/03 02:26:05;;;;;;;3.67;1.58;;;;;;;-4.59;94.68;97927.38;4208255;28;20467;-70
2021/12/03 02:28:06;;;;;;;3.42;1.65;;;;;;;-4.66;94.23;97921.53;4206918;27;20906;-71
2021/12/03 02:30:08;;;;;;;3.47;1.90;;;;;;;-4.70;94.90;97920.53;4206933;28;20032;-71
2021/12/03 02:32:08;;;;;;;4.87;1.97;;;;;;;-4.73;95.04;97914.91;4205687;28;20099;-71
2021/12/03 02:34:08;;;;;;;5.80;2.20;;;;;;;-4.76;95.38;97923.59;4207038;28;20128;-71
2021/12/03 02:36:09;;;;;;;3.78;1.70;;;;;;;-4.72;98.63;97914.63;4205468;28;20028;-71
2021/12/03 02:38:13;;;;;;;3.10;1.95;;;;;;;-4.71;100.00;97913.53;4208301;27;20364;-71
2021/12/03 02:40:15;;;;;;;4.13;1.80;;;;;;;-4.67;100.00;97928.03;4209750;28;20135;-71
2021/12/03 02:42:16;;;;;;;3.85;1.92;;;;;;;-4.70;100.00;97925.94;4206782;28;20403;-71
2021/12/03 02:44:16;;;;;;;2.42;1.73;;;;;;;-4.71;100.00;97924.34;4204276;28;20032;-71
2021/12/03 02:46:16;;;;;;;6.25;2.30;;;;;;;-4.71;99.37;97928.94;4205106;28;20035;-71
2021/12/03 02:48:19;;;;;;;2.63;1.85;;;;;;;-4.81;98.34;97927.16;4209485;28;20038;-70
2021/12/03 02:50:19;;;;;;;2.45;1.73;;;;;;;-4.88;97.85;97930.25;4203925;28;20488;-70
2021/12/03 02:52:19;;;;;;;6.78;2.03;;;;;;;-4.94;97.93;97938.69;4207474;28;20067;-70
2021/12/03 02:54:20;;;;;;;3.20;1.48;;;;;;;-5.03;97.18;97935.03;4209135;28;20055;-70
2021/12/03 02:56:20;;;;;;;2.00;1.70;;;;;;;-5.05;96.97;97939.91;4206934;28;20052;-71
2021/12/03 02:58:21;;;;;;;2.45;1.50;;;;;;;-5.08;96.62;97933.19;4207099;27;20548;-71
2021/12/03 03:00:25;;;;;;;2.00;1.30;;;;;;;-5.10;96.61;97938.09;4206342;28;20747;-71
2021/12/03 03:02:26;;;;;;;2.25;1.40;;;;;;;-5.10;94.54;97930.78;4204279;28;20529;-70
2021/12/03 03:04:26;;;;;;;4.47;1.83;;;;;;;-5.09;94.14;97929.69;4206785;28;20033;-71
2021/12/03 03:06:27;;;;;;;5.45;1.35;;;;;;;-5.03;94.05;97932.34;4206225;28;20032;-71
2021/12/03 03:08:28;;;;;;;4.95;1.70;;;;;;;-5.01;93.66;97935.53;4207201;27;20133;-71
2021/12/03 03:10:31;;;;;;;3.42;1.30;;;;;;;-4.93;93.46;97929.50;4208152;27;20036;-71
2021/12/03 03:12:31;;;;;;;2.72;1.48;;;;;;;-4.96;93.26;97932.78;4209071;27;20063;-71
2021/12/03 03:14:31;;;;;;;2.40;1.55;;;;;;;-4.95;94.09;97935.19;4207720;27;20036;-71
2021/12/03 03:16:33;;;;;;;4.18;1.42;;;;;;;-4.88;97.39;97943.75;4207898;27;20097;-71
2021/12/03 03:18:34;;;;;;;1.52;1.20;;;;;;;-4.86;97.07;97943.44;4209608;27;20552;-71
2021/12/03 03:20:38;;;;;;;2.17;1.55;;;;;;;-4.82;99.08;97949.84;4208537;27;20032;-70
2021/12/03 03:22:40;;;;;;;2.83;1.63;;;;;;;-4.73;100.00;97952.69;4207034;28;20475;-71
2021/12/03 03:24:41;;;;;;;2.45;1.60;;;;;;;-4.69;100.00;97953.72;4213582;27;20052;-71
2021/12/03 03:26:44;;;;;;;2.60;1.65;;;;;;;-4.62;100.00;97952.28;4208190;27;20119;-71
2021/12/03 03:28:45;;;;;;;1.92;1.35;;;;;;;-4.57;100.00;97957.59;4207747;27;20313;-71
2021/12/03 03:30:49;;;;;;;3.65;1.88;;;;;;;-4.53;100.00;97955.13;4208571;27;20078;-71
2021/12/03 03:32:52;;;;;;;2.30;1.60;;;;;;;-4.53;99.21;97955.91;4209081;27;20101;-71
2021/12/03 03:34:52;;;;;;;;;;;;;;;-4.61;96.02;97961.19;4208775;27;20416;-71
2021/12/03 03:36:52;;;;;;;3.03;1.40;;;;;;;-4.69;98.65;97962.63;4206292;27;20006;-71
2021/12/03 03:38:53;;;;;;;4.07;1.95;;;;;;;-4.83;98.41;97956.34;4208614;27;20513;-71
2021/12/03 03:40:54;;;;;;;2.63;1.40;;;;;;;-4.98;98.77;97957.34;4209378;27;20044;-71
2021/12/03 03:42:56;;;;;;;2.90;1.55;;;;;;;-5.20;97.63;97957.09;4208943;27;20070;-71
2021/12/03 03:44:57;;;;;;;;;;;;;;;-5.27;99.67;97951.25;4210154;27;20036;-71
2021/12/03 03:46:59;;;;;;;2.95;1.63;;;;;;;-5.46;99.02;97962.78;4208696;27;20267;-71
2021/12/03 03:48:59;;;;;;;4.53;1.88;;;;;;;-5.68;98.02;97957.88;4206861;27;20113;-71
2021/12/03 03:51:00;;;;;;;3.38;1.50;;;;;;;-5.72;100.00;97966.81;4208650;27;20036;-71
2021/12/03 03:53:01;;;;;;;3.50;1.67;;;;;;;-5.71;100.00;97965.72;4208410;27;20052;-71
2021/12/03 03:55:03;;;;;;;3.03;1.52;;;;;;;-5.63;100.00;97962.41;4207510;27;20404;-71
2021/12/03 03:57:04;;;;;;;2.35;1.48;;;;;;;-5.67;100.00;97964.88;4212815;27;20059;-71
2021/12/03 03:59:06;;;;;;;4.50;2.45;;;;;;;-5.59;100.00;97962.66;4207827;27;20056;-71
2021/12/03 04:01:07;;;;;;;5.03;2.95;;;;;;;-5.56;100.00;97962.88;4208891;27;20141;-71
2021/12/03 04:03:08;;;;;;;4.32;2.63;;;;;;;-5.38;100.00;97961.31;4209058;27;20098;-71
2021/12/03 04:05:09;;;;;;;4.28;2.47;;;;;;;-5.33;100.00;97963.97;4209947;27;20052;-71
2021/12/03 04:07:10;;;;;;;5.90;2.83;;;;;;;-5.27;100.00;97956.66;4208217;27;20036;-71
2021/12/03 04:09:11;;;;;;;6.75;3.00;;;;;;;-5.23;100.00;97958.47;4208162;27;20286;-71
2021/12/03 04:11:13;;;;;;;7.20;3.05;;;;;;;-5.21;100.00;97958.19;4208614;27;20090;-71
2021/12/03 04:13:14;;;;;;;4.70;2.63;;;;;;;-5.19;100.00;97956.81;4210694;27;20654;-71
2021/12/03 04:15:15;;;;;;;7.32;2.95;;;;;;;-5.13;100.00;97961.06;4214564;27;20128;-72
2021/12/03 04:17:15;;;;;;;7.55;3.13;;;;;;;-5.08;100.00;97962.88;4207895;27;20040;-71
2021/12/03 04:19:17;;;;;;;6.20;3.00;;;;;;;-4.96;100.00;97957.06;4212129;27;20052;-71
2021/12/03 04:21:18;;;;;;;5.72;2.65;;;;;;;-4.82;100.00;97966.03;4211359;27;20082;-71
2021/12/03 04:23:19;;;;;;;6.65;3.28;;;;;;;-4.63;100.00;97960.69;4208051;27;20063;-71
2021/12/03 04:25:22;;;;;;;17.23;6.23;;;;;;;-4.32;98.95;97974.50;4213077;27;20559;-71
2021/12/03 04:27:22;;;;;;;8.68;4.18;;;;;;;-4.22;97.68;97965.44;4213414;27;20047;-71
2021/12/03 04:29:23;;;;;;;8.30;4.88;;;;;;;-4.14;96.55;97960.16;4210171;27;20051;-71
2021/12/03 04:31:23;;;;;;;6.45;3.72;;;;;;;-4.09;96.29;97954.69;4209532;27;20044;-71
2021/12/03 04:33:24;;;;;;;8.25;4.50;;;;;;;-4.02;95.95;97957.03;4209289;27;20050;-71
2021/12/03 04:35:26;;;;;;;5.50;3.47;;;;;;;-3.94;95.45;97969.06;4212568;27;20031;-71
2021/12/03 04:37:27;;;;;;;6.47;3.22;;;;;;;-3.92;94.87;97973.06;4213611;27;20040;-71
2021/12/03 04:39:27;;;;;;;5.53;3.10;;;;;;;-3.88;94.37;97971.38;4211909;27;20043;-71
2021/12/03 04:41:27;;;;;;;7.47;3.95;;;;;;;-3.88;94.99;97976.78;4215078;27;20059;-71
2021/12/03 04:43:29;;;;;;;7.75;3.42;;;;;;;-3.92;95.05;97978.47;4214217;27;20079;-71
2021/12/03 04:45:30;;;;;;;5.15;2.95;;;;;;;-3.91;94.81;97980.06;4210111;27;20350;-71
2021/12/03 04:47:31;;;;;;;7.25;2.72;;;;;;;-3.90;93.62;97980.88;4208900;27;20043;-71
2021/12/03 04:49:31;;;;;;;6.30;2.95;;;;;;;-3.99;94.15;97986.94;4209795;27;20310;-71
2021/12/03 04:51:31;;;;;;;7.45;3.30;;;;;;;-4.10;95.00;97988.22;4205052;27;20059;-71
2021/12/03 04:53:32;;;;;;;4.25;2.78;;;;;;;-4.13;94.94;98001.53;4212074;27;20418;-71
2021/12/03 04:55:33;;;;;;;4.68;2.53;;;;;;;-4.17;96.27;97998.59;4209697;27;20210;-72
2021/12/03 04:57:33;;;;;;;4.85;2.60;;;;;;;-4.19;97.32;98010.78;4213087;27;20036;-71
2021/12/03 04:59:34;;;;;;;7.38;3.67;;;;;;;-4.28;97.72;98005.25;4207779;27;20395;-71
2021/12/03 05:01:35;;;;;;;6.43;3.00;;;;;;;-4.26;98.77;98003.84;4210259;27;20044;-72
2021/12/03 05:03:37;;;;;;;6.30;3.38;;;;;;;-4.27;99.88;98006.84;4211734;27;20046;-72
2021/12/03 05:05:43;;;;;;;6.80;2.97;;;;;;;-4.31;99.45;98009.31;4207589;28;20043;-71
2021/12/03 05:10:12;;;;;;;5.43;2.70;;;;;;;-4.52;98.55;98006.13;4190994;27;20105;-71
2021/12/03 05:12:13;;;;;;;6.63;3.63;;;;;;;-4.50;100.00;98013.13;4209986;27;20508;-71
2021/12/03 05:14:13;;;;;;;6.43;3.30;;;;;;;-4.53;100.00;98017.22;4205940;27;20104;-71
2021/12/03 05:16:14;;;;;;;6.45;3.05;;;;;;;-4.53;100.00;98018.03;4208533;27;20047;-71
2021/12/03 05:18:17;;;;;;;9.40;3.80;;;;;;;-4.52;100.00;98025.03;4205921;27;20032;-71
2021/12/03 05:20:18;;;;;;;5.60;2.97;;;;;;;-4.60;100.00;98006.78;4204819;27;20024;-71
2021/12/03 05:22:18;;;;;;;6.05;2.92;;;;;;;-4.53;100.00;98006.41;4209546;27;20046;-71
2021/12/03 05:24:18;;;;;;;8.95;3.25;;;;;;;-4.52;100.00;98002.63;4207159;27;20020;-71
2021/12/03 05:26:19;;;;;;;6.95;2.83;;;;;;;-4.47;100.00;98007.94;4206285;28;20024;-71
2021/12/03 05:28:19;;;;;;;8.27;3.20;;;;;;;-4.44;100.00;98010.06;4207548;27;20028;-71
2021/12/03 05:30:20;;;;;;;5.18;2.72;;;;;;;-4.50;100.00;98015.81;4203273;27;20035;-71
2021/12/03 05:32:21;;;;;;;7.45;3.28;;;;;;;-4.53;100.00;98018.03;4208293;27;20142;-71
2021/12/03 05:34:22;;;;;;;5.57;2.85;;;;;;;-4.53;100.00;98018.03;4205672;27;20220;-71
2021/12/03 05:36:22;;;;;;;7.50;3.03;;;;;;;-4.52;100.00;98019.63;4206321;27;20040;-71
2021/12/03 05:38:23;;;;;;;5.63;2.60;;;;;;;-4.55;100.00;98016.69;4204570;27;20044;-71
2021/12/03 05:40:23;;;;;;;6.03;2.65;;;;;;;-4.55;100.00;98016.69;4204270;28;20039;-71
2021/12/03 05:42:24;;;;;;;7.10;2.92;;;;;;;-4.54;100.00;98015.63;4207161;27;20848;-71
2021/12/03 05:44:24;;;;;;;6.90;3.45;;;;;;;-4.56;100.00;98029.38;4204385;27;20089;-71
2021/12/03 05:46:25;;;;;;;5.32;2.90;;;;;;;-4.60;100.00;98025.69;4209879;27;20564;-71
2021/12/03 05:48:25;;;;;;;6.43;2.80;;;;;;;-4.70;99.98;98033.09;4206656;27;20040;-71
2021/12/03 05:50:26;;;;;;;6.97;3.17;;;;;;;-4.80;98.26;98028.63;4205380;28;20047;-71
2021/12/03 05:52:27;;;;;;;9.70;3.22;;;;;;;-4.84;99.23;98027.59;4212272;28;20468;-71
2021/12/03 05:54:28;;;;;;;6.78;3.03;;;;;;;-4.88;100.00;98026.56;4205056;28;20123;-71
2021/12/03 05:56:29;;;;;;;5.30;2.95;;;;;;;-4.86;100.00;98021.69;4204410;28;20111;-71
2021/12/03 05:58:29;;;;;;;6.38;2.85;;;;;;;-4.91;100.00;98027.94;4207716;28;20123;-71
2021/12/03 06:00:33;;;;;;;4.18;2.42;;;;;;;-4.97;100.00;98031.00;4208653;27;20138;-71
2021/12/03 06:02:33;;;;;;;9.40;3.25;;;;;;;-5.04;100.00;98036.75;4204425;28;20314;-71
2021/12/03 06:04:34;;;;;;;5.28;2.83;;;;;;;-5.03;100.00;98046.44;4205422;28;20036;-71
2021/12/03 06:06:34;;;;;;;4.47;2.50;;;;;;;-5.05;100.00;98048.63;4204938;28;20526;-71
2021/12/03 06:08:35;;;;;;;8.27;3.65;;;;;;;-5.13;100.00;98052.78;4204108;28;20040;-71
2021/12/03 06:10:36;;;;;;;6.75;3.83;;;;;;;-5.10;100.00;98046.00;4205770;28;20052;-71
2021/12/03 06:12:37;;;;;;;10.70;4.28;;;;;;;-5.16;99.60;98039.84;4206799;28;20040;-71
2021/12/03 06:14:37;;;;;;;8.00;4.05;;;;;;;-5.15;100.00;98035.25;4211135;28;20364;-71
2021/12/03 06:16:37;;;;;;;6.80;3.25;;;;;;;-5.11;100.00;98042.50;4203976;27;20422;-71
2021/12/03 06:18:38;;;;;;;11.68;4.65;;;;;;;-5.05;100.00;98051.31;4206768;28;20098;-71
2021/12/03 06:20:39;;;;;;;8.13;4.15;;;;;;;-5.01;100.00;98046.16;4206351;28;20050;-71
2021/12/03 06:22:40;;;;;;;9.30;4.55;;;;;;;-5.03;100.00;98049.16;4207446;27;20081;-71
2021/12/03 06:24:41;;;;;;;11.93;4.65;;;;;;;-4.96;100.00;98052.31;4208271;28;20044;-72
2021/12/03 06:26:41;;;;;;;9.93;3.92;;;;;;;-4.97;100.00;98066.06;4219141;28;20044;-71
2021/12/03 06:28:41;;;;;;;5.97;3.88;;;;;;;-5.09;99.13;98053.78;4206504;28;20131;-71
2021/12/03 06:30:42;;;;;;;6.25;3.70;;;;;;;-5.06;99.51;98062.38;4206023;27;20149;-71
2021/12/03 06:32:43;;;;;;;9.30;3.80;;;;;;;-5.08;98.56;98065.38;4206149;27;20060;-71
2021/12/03 06:34:43;;;;;;;6.85;3.55;;;;;;;-5.05;99.62;98069.38;4211065;27;20054;-71
2021/12/03 06:36:43;;;;;;;7.68;4.20;;;;;;;-4.98;99.85;98072.56;4206735;28;20073;-71
2021/12/03 06:38:44;;;;;;;6.10;3.10;;;;;;;-4.95;100.00;98074.69;4206688;28;20340;-71
2021/12/03 06:40:45;;;;;;;7.47;3.83;;;;;;;-4.94;100.00;98066.31;4204903;28;20040;-71
2021/12/03 06:42:47;;;;;;;8.25;3.47;;;;;;;-4.97;100.00;98079.56;4205794;27;20056;-71
2021/12/03 06:44:47;;;;;;;9.88;4.03;;;;;;;-4.95;100.00;98077.41;4209397;27;20044;-71
2021/12/03 06:46:47;;;;;;;6.65;3.70;;;;;;;-4.91;100.00;98078.41;4209225;27;20491;-71
2021/12/03 06:48:47;;;;;;;5.70;3.20;;;;;;;-4.98;99.55;98086.03;4207967;27;20040;-71
2021/12/03 06:50:50;;;;;;;6.15;3.10;;;;;;;-4.97;98.70;98072.25;4208569;27;20051;-71
2021/12/03 06:53:05;;;;;;;5.82;3.15;;;;;;;-4.82;98.45;98082.09;4209544;27;20106;-71
2021/12/03 06:55:09;;;;;;;6.72;3.50;;;;;;;-4.74;98.18;98080.66;4211226;27;20052;-71
2021/12/03 06:57:10;;;;;;;7.80;4.10;;;;;;;-4.55;98.10;98090.41;4209077;27;20103;-71
2021/12/03 06:59:11;;;;;;;7.55;3.83;;;;;;;-4.46;98.55;98085.19;4207875;27;20063;-71
2021/12/03 07:01:12;;;;;;;7.03;3.50;;;;;;;-4.37;97.83;98080.72;4209560;27;20040;-71
2021/12/03 07:03:12;;;;;;;5.80;2.88;;;;;;;-4.32;97.53;98077.16;4207801;27;20451;-71
2021/12/03 07:05:14;;;;;;;6.55;3.67;;;;;;;-4.21;96.65;98089.44;4211819;27;20202;-71
2021/12/03 07:07:14;;;;;;;7.80;3.40;;;;;;;-4.16;96.26;98085.84;4210388;27;20521;-71
2021/12/03 07:09:15;;;;;;;8.88;3.75;;;;;;;-4.15;96.49;98093.66;4207097;27;20040;-71
2021/12/03 07:11:15;;;;;;;6.82;3.03;;;;;;;-4.18;96.68;98093.44;4208913;27;20113;-71
2021/12/03 07:13:15;;;;;;;5.13;2.75;;;;;;;-4.19;96.57;98097.25;4207641;27;20569;-71
2021/12/03 07:15:16;;;;;;;5.50;3.13;;;;;;;-4.22;96.49;98104.00;4208994;27;20464;-71
2021/12/03 07:17:17;;;;;;;6.75;3.20;;;;;;;-4.17;96.66;98098.56;4207609;27;20128;-71
2021/12/03 07:19:17;;;;;;;8.35;3.75;;;;;;;-4.14;96.62;98097.97;4210083;27;20071;-71
2021/12/03 07:21:18;;;;;;;7.78;3.25;;;;;;;-4.13;96.74;98083.38;4209310;27;20035;-71
2021/12/03 07:23:18;;;;;;;4.95;3.22;;;;;;;-4.14;97.05;98094.47;4207220;27;20047;-71
2021/12/03 07:25:18;;;;;;;5.10;3.13;;;;;;;-4.15;96.91;98096.34;4207991;27;20108;-71
2021/12/03 07:27:20;;;;;;;7.30;3.00;;;;;;;-4.18;97.17;98094.25;4213647;27;20050;-71
2021/12/03 07:29:20;;;;;;;7.75;3.70;;;;;;;-4.19;97.80;98092.66;4209487;27;20052;-71
2021/12/03 07:31:20;;;;;;;7.53;3.75;;;;;;;-4.21;98.15;98091.34;4205865;27;20094;-71
2021/12/03 07:33:21;;;;;;;6.93;3.75;;;;;;;-4.22;98.36;98098.59;4207447;27;20048;-71
2021/12/03 07:35:21;;;;;;;10.18;5.68;;;;;;;-4.22;98.06;98106.72;4209533;27;20092;-71
2021/12/03 07:37:22;;;;;;;8.30;5.15;;;;;;;-4.25;98.53;98101.91;4206600;27;20036;-71
2021/12/03 07:39:22;;;;;;;10.25;5.45;;;;;;;-4.22;98.99;98104.00;4207561;27;20059;-71
2021/12/03 07:41:22;;;;;;;10.45;5.82;;;;;;;-4.27;99.19;98118.41;4212837;27;20089;-71
2021/12/03 07:43:23;;;;;;;8.85;5.28;;;;;;;-4.32;98.97;98112.25;4208274;27;20036;-71
2021/12/03 07:45:24;;;;;;;12.02;6.28;;;;;;;-4.32;98.18;98118.47;4206621;27;20204;-71
2021/12/03 07:47:25;;;;;;;29.42;12.93;;;;;;;-4.30;98.61;98132.50;4219621;27;20503;-71
2021/12/03 07:49:26;;;;;;;22.90;12.10;;;;;;;-4.31;97.82;98130.88;4208178;27;20820;-71
2021/12/03 07:51:26;;;;;;;19.40;9.63;;;;;;;-4.34;97.97;98133.34;4206044;27;20051;-71
2021/12/03 07:53:27;;;;;;;7.68;5.07;;;;;;;-4.34;98.09;98147.66;4210354;27;20039;-71
2021/12/03 07:55:27;;;;;;;7.35;4.50;;;;;;;-4.25;97.07;98147.81;4210107;27;20032;-71
2021/12/03 07:57:27;;;;;;;6.95;3.83;;;;;;;-4.23;96.17;98153.72;4209308;27;20052;-71
2021/12/03 07:59:28;;;;;;;7.15;3.35;;;;;;;-4.17;95.89;98157.19;4208746;27;20385;-71
2021/12/03 08:01:28;;;;;;;5.95;3.17;;;;;;;-4.12;96.39;98166.03;4210781;27;20098;-71
2021/12/03 08:03:29;;;;;;;6.72;4.18;;;;;;;-4.08;96.30;98163.56;4207593;27;20484;-71
2021/12/03 08:05:29;;;;;;;8.15;3.92;;;;;;;-4.00;96.08;98171.81;4206271;27;20078;-71
2021/12/03 08:07:30;;;;;;;9.50;4.10;;;;;;;-3.98;96.26;98177.72;4210059;27;20387;-71
2021/12/03 08:09:30;;;;;;;7.30;3.80;;;;;;;-3.96;95.92;98167.44;4212421;27;20058;-71
2021/12/03 08:11:31;;;;;;;8.70;4.20;;;;;;;-3.88;95.40;98165.19;4206276;27;20032;-71
2021/12/03 08:13:31;;;;;;;8.73;3.78;;;;;;;-3.84;95.77;98169.72;4209164;27;20097;-71
2021/12/03 08:15:36;;;;;;;8.18;4.35;;;;;;;-3.75;95.33;98170.66;4207790;27;20036;-71
2021/12/03 08:17:37;;;;;;;8.35;4.80;;;;;;;-3.71;94.83;98181.72;4207053;27;20067;-71
2021/12/03 08:19:38;;;;;;;11.35;4.53;;;;;;;-3.64;95.16;98171.34;4207022;27;20047;-71
2021/12/03 08:21:38;;;;;;;9.45;5.38;;;;;;;-3.43;93.86;98177.22;4208610;27;20050;-71
2021/12/03 08:23:39;;;;;;;8.75;5.18;;;;;;;-3.38;94.14;98174.47;4206631;27;20073;-71
2021/12/03 08:25:39;;;;;;;9.23;4.93;;;;;;;-3.33;92.83;98168.94;4208455;27;20062;-71
2021/12/03 08:27:41;;;;;;;9.88;5.05;;;;;;;-3.33;92.69;98168.94;4207343;27;20071;-71
2021/12/03 08:29:41;;;;;;;12.73;5.77;;;;;;;-3.29;92.53;98164.56;4217076;27;20035;-71
2021/12/03 08:31:42;;;;;;;8.65;5.07;;;;;;;-3.35;93.09;98159.53;4206758;27;20308;-71
2021/12/03 08:33:43;;;;;;;10.00;4.60;;;;;;;-3.31;93.83;98163.22;4208977;27;20215;-71
2021/12/03 08:35:44;;;;;;;11.35;5.15;;;;;;;-3.31;93.49;98158.66;4209158;27;20047;-71
2021/12/03 08:37:46;;;;;;;8.88;4.97;;;;;;;-3.27;92.85;98161.56;4211120;27;20370;-71
2021/12/03 08:39:47;;;;;;;;;;;;;;;-3.24;92.17;98156.34;4207500;27;20052;-71
2021/12/03 08:41:48;;;;;;;8.30;4.75;;;;;;;-3.22;93.67;98142.56;4206130;27;19919;-71
2021/12/03 08:43:49;;;;;;;8.98;5.00;;;;;;;-3.13;93.46;98146.19;4206976;27;20603;-71
2021/12/03 08:45:54;;;;;;;10.30;5.07;;;;;;;-3.08;92.14;98148.78;4208356;27;20048;-71
2021/12/03 08:47:58;;;;;;;11.18;5.10;;;;;;;-3.04;92.14;98144.41;4206880;27;20040;-71
2021/12/03 08:50:00;;;;;;;9.40;5.32;;;;;;;-2.96;91.81;98141.00;4206576;27;20094;-71
2021/12/03 08:56:20;;;;;;;9.55;5.03;;;;;;;-2.75;90.17;98140.63;4206742;27;20058;-71
2021/12/03 08:58:21;;;;;;;8.57;4.72;;;;;;;-2.73;90.31;98152.78;4208005;27;20643;-71
2021/12/03 09:00:23;;;;;;;9.63;5.07;;;;;;;-2.70;90.78;98163.00;4205619;27;20066;-71
2021/12/03 09:02:24;;;;;;;10.20;5.57;;;;;;;-2.68;90.32;98168.91;4206823;27;20153;-71
2021/12/03 09:04:24;;;;;;;10.68;6.20;;;;;;;-2.66;90.29;98171.31;4207973;27;20077;-71
2021/12/03 09:06:26;;;;;;;9.25;5.35;;;;;;;-2.64;90.57;98169.94;4207029;27;20058;-71
2021/12/03 09:08:26;;;;;;;11.20;5.25;;;;;;;-2.62;90.48;98167.72;4204889;27;20412;-71
2021/12/03 09:10:27;;;;;;;9.07;5.28;;;;;;;-2.62;90.84;98175.06;4206120;27;20032;-71
2021/12/03 09:12:27;;;;;;;9.15;5.55;;;;;;;-2.57;90.88;98164.09;4206901;27;20462;-71
2021/12/03 09:16:29;;;;;;;9.82;5.32;;;;;;;-2.52;90.21;98160.50;4206566;27;20140;-71
2021/12/03 09:18:35;;;;;;;9.52;5.28;;;;;;;-2.53;90.75;98172.44;4209415;27;20468;-71
2021/12/03 09:20:52;;;;;;;9.25;5.70;;;;;;;-2.58;89.86;98160.59;4206762;27;20131;-71
2021/12/03 09:23:03;;;;;;;7.72;4.70;;;;;;;-2.50;89.65;98169.13;4206367;27;20032;-71
2021/12/03 09:25:05;;;;;;;14.32;5.28;;;;;;;-2.43;90.22;98148.66;4206685;28;20047;-71
2021/12/03 09:27:06;;;;;;;;;;;;;;;-2.36;89.87;98159.91;4207893;27;20048;-71
2021/12/03 09:29:09;;;;;;;10.88;5.55;;;;;;;-2.39;89.73;98148.88;4205435;27;19927;-71
2021/12/03 09:31:10;;;;;;;9.10;5.00;;;;;;;-2.41;90.08;98148.38;4206334;27;20317;-71
2021/12/03 09:33:14;;;;;;;8.85;5.30;;;;;;;-2.46;90.67;98149.28;4209657;27;20584;-71
2021/12/03 09:35:15;;;;;;;9.68;4.80;;;;;;;-2.40;90.04;98141.84;4209169;27;20054;-71